sensor_id;sensor_type;location;lat;lon;timestamp;temperature;humidity
9265;DHT22;4669;49.594;10.958;2023-08-01T04:26:45;18.50;99.90
9265;DHT22;4669;49.594;10.958;2023-08-01T04:31:47;18.50;99.90
9265;DHT22;4669;49.594;10.958;2023-08-01T04:36:49;18.50;99.90
9265;DHT22;4669;49.594;10.958;2023-08-01T04:41:53;18.50;99.90
9265;DHT22;4669;49.594;10.958;2023-08-01T04:46:54;18.50;99.90
9265;DHT22;4669;49.594;10.958;2023-08-01T04:51:56;18.60;99.90
9265;DHT22;4669;49.594;10.958;2023-08-01T04:57:00;18.60;99.90
9265;DHT22;4669;49.594;10.958;2023-08-01T05:02:01;18.50;99.90
9265;DHT22;4669;49.594;10.958;2023-08-01T05:07:04;18.60;99.90
9265;DHT22;4669;49.594;10.958;2023-08-01T05:12:08;18.60;99.90
9265;DHT22;4669;49.594;10.958;2023-08-01T05:17:10;18.70;99.90
9265;DHT22;4669;49.594;10.958;2023-08-01T05:22:12;18.60;99.90
9265;DHT22;4669;49.594;10.958;2023-08-01T05:27:15;18.60;99.90
9265;DHT22;4669;49.594;10.958;2023-08-01T05:32:18;18.60;99.90
9265;DHT22;4669;49.594;10.958;2023-08-01T05:37:20;18.60;99.90
9265;DHT22;4669;49.594;10.958;2023-08-01T05:42:23;18.60;99.90
9265;DHT22;4669;49.594;10.958;2023-08-01T05:47:25;18.60;99.90
9265;DHT22;4669;49.594;10.958;2023-08-01T05:52:26;18.60;99.90
9265;DHT22;4669;49.594;10.958;2023-08-01T05:57:30;18.60;99.90
9265;DHT22;4669;49.594;10.958;2023-08-01T06:02:32;18.60;99.90
9265;DHT22;4669;49.594;10.958;2023-08-01T06:07:34;18.60;99.90
9265;DHT22;4669;49.594;10.958;2023-08-01T06:12:37;18.60;99.90
9265;DHT22;4669;49.594;10.958;2023-08-01T06:17:39;18.50;99.90
9265;DHT22;4669;49.594;10.958;2023-08-01T06:22:41;18.60;99.90
9265;DHT22;4669;49.594;10.958;2023-08-01T06:27:45;18.60;99.90
9265;DHT22;4669;49.594;10.958;2023-08-01T17:36:47;21.70;93.50
9265;DHT22;4669;49.594;10.958;2023-08-01T17:41:49;21.40;95.70
9265;DHT22;4669;49.594;10.958;2023-08-01T17:46:53;20.50;99.00
9265;DHT22;4669;49.594;10.958;2023-08-01T17:51:57;19.50;99.90
9265;DHT22;4669;49.594;10.958;2023-08-01T17:56:58;18.90;99.90
9265;DHT22;4669;49.594;10.958;2023-08-01T18:02:00;18.60;99.90
9265;DHT22;4669;49.594;10.958;2023-08-01T18:07:04;18.50;99.90
9265;DHT22;4669;49.594;10.958;2023-08-01T18:12:06;18.50;99.90
9265;DHT22;4669;49.594;10.958;2023-08-01T18:17:09;18.70;99.90
9265;DHT22;4669;49.594;10.958;2023-08-01T18:22:12;18.80;99.90
9265;DHT22;4669;49.594;10.958;2023-08-01T18:27:14;18.80;99.90
9265;DHT22;4669;49.594;10.958;2023-08-01T18:32:15;18.80;99.90
9265;DHT22;4669;49.594;10.958;2023-08-01T18:37:19;18.80;99.90
9265;DHT22;4669;49.594;10.958;2023-08-01T18:42:21;18.70;99.90
9265;DHT22;4669;49.594;10.958;2023-08-01T18:47:23;18.70;99.90
9265;DHT22;4669;49.594;10.958;2023-08-01T18:52:26;18.60;99.90
9265;DHT22;4669;49.594;10.958;2023-08-01T18:57:30;18.50;99.90
9265;DHT22;4669;49.594;10.958;2023-08-01T19:02:32;18.40;99.90
9265;DHT22;4669;49.594;10.958;2023-08-01T19:07:35;18.20;99.90
9265;DHT22;4669;49.594;10.958;2023-08-01T19:12:37;18.00;99.90
9265;DHT22;4669;49.594;10.958;2023-08-01T19:17:39;18.00;99.90
9265;DHT22;4669;49.594;10.958;2023-08-01T19:22:42;17.90;99.90
9265;DHT22;4669;49.594;10.958;2023-08-01T19:27:44;17.80;99.90
9265;DHT22;4669;49.594;10.958;2023-08-01T19:32:48;17.70;99.90
9265;DHT22;4669;49.594;10.958;2023-08-01T19:37:51;17.70;99.90
9265;DHT22;4669;49.594;10.958;2023-08-01T19:42:53;17.80;99.90
9265;DHT22;4669;49.594;10.958;2023-08-01T19:47:55;17.70;99.90
9265;DHT22;4669;49.594;10.958;2023-08-01T19:52:58;17.60;99.90
9265;DHT22;4669;49.594;10.958;2023-08-01T19:58:00;17.60;99.90
9265;DHT22;4669;49.594;10.958;2023-08-01T20:03:02;17.50;99.90
9265;DHT22;4669;49.594;10.958;2023-08-01T20:08:06;17.60;99.90
9265;DHT22;4669;49.594;10.958;2023-08-01T20:13:07;17.60;99.90
9265;DHT22;4669;49.594;10.958;2023-08-01T20:18:09;17.60;99.90
9265;DHT22;4669;49.594;10.958;2023-08-01T20:23:13;17.60;99.90
9265;DHT22;4669;49.594;10.958;2023-08-01T20:28:14;17.70;99.90
9265;DHT22;4669;49.594;10.958;2023-08-01T20:33:18;17.70;99.90
9265;DHT22;4669;49.594;10.958;2023-08-01T20:38:22;17.60;99.90
9265;DHT22;4669;49.594;10.958;2023-08-01T20:43:25;17.60;99.90
9265;DHT22;4669;49.594;10.958;2023-08-01T20:48:27;17.70;99.90
9265;DHT22;4669;49.594;10.958;2023-08-01T20:53:30;17.70;99.90
9265;DHT22;4669;49.594;10.958;2023-08-01T20:58:32;17.70;99.90
9265;DHT22;4669;49.594;10.958;2023-08-01T21:03:34;17.70;99.90
9265;DHT22;4669;49.594;10.958;2023-08-01T21:08:37;17.60;99.90
9265;DHT22;4669;49.594;10.958;2023-08-01T21:13:40;17.60;99.90
9265;DHT22;4669;49.594;10.958;2023-08-01T21:18:46;17.50;99.90
9265;DHT22;4669;49.594;10.958;2023-08-01T21:23:49;17.50;99.90
9265;DHT22;4669;49.594;10.958;2023-08-01T21:28:51;17.60;99.90
9265;DHT22;4669;49.594;10.958;2023-08-01T21:33:59;17.60;99.90
9265;DHT22;4669;49.594;10.958;2023-08-01T21:39:02;17.60;99.90
9265;DHT22;4669;49.594;10.958;2023-08-01T21:44:04;17.60;99.90
9265;DHT22;4669;49.594;10.958;2023-08-01T21:49:06;17.70;99.90
9265;DHT22;4669;49.594;10.958;2023-08-01T21:54:09;17.70;99.90
9265;DHT22;4669;49.594;10.958;2023-08-01T21:59:11;17.70;99.90
